createdAt,value
2022-11-23T00:00:33.780Z,45.76
2022-11-23T00:01:33.739Z,48.34
2022-11-23T00:02:33.827Z,47.37
2022-11-23T00:03:33.732Z,47.70
2022-11-23T00:04:34.590Z,48.82
2022-11-23T00:05:33.708Z,51.72
2022-11-23T00:06:33.702Z,50.76
2022-11-23T00:07:33.747Z,51.24
2022-11-23T00:08:33.694Z,49.47
2022-11-23T00:09:33.958Z,46.41
2022-11-23T00:10:33.644Z,45.12
2022-11-23T00:11:33.749Z,47.53
2022-11-23T00:12:33.641Z,46.73
2022-11-23T00:13:33.638Z,46.89
2022-11-23T00:14:33.619Z,47.37
2022-11-23T00:15:33.593Z,48.50
2022-11-23T00:16:33.594Z,45.60
2022-11-23T00:17:33.587Z,44.47
2022-11-23T00:18:33.592Z,48.50
2022-11-23T00:19:33.835Z,48.50
2022-11-23T00:20:33.600Z,47.37
2022-11-23T00:21:33.557Z,46.25
2022-11-23T00:22:33.536Z,45.44
2022-11-23T00:23:33.547Z,46.08
2022-11-23T00:24:33.593Z,44.96
2022-11-23T00:25:33.518Z,46.25
2022-11-23T00:26:33.503Z,48.02
2022-11-23T00:27:33.484Z,48.50
2022-11-23T00:28:33.505Z,46.57
2022-11-23T00:29:33.782Z,46.25
2022-11-23T00:30:33.457Z,46.25
2022-11-23T00:31:33.440Z,49.15
2022-11-23T00:32:33.422Z,49.31
2022-11-23T00:33:33.433Z,48.98
2022-11-23T00:34:33.404Z,45.76
2022-11-23T00:35:34.433Z,46.25
2022-11-23T00:36:33.372Z,46.41
2022-11-23T00:37:33.413Z,47.86
2022-11-23T00:38:33.379Z,45.92
2022-11-23T00:39:33.642Z,45.92
2022-11-23T00:40:33.346Z,47.21
2022-11-23T00:41:33.328Z,47.70
2022-11-23T00:42:37.808Z,47.05
2022-11-23T00:43:34.304Z,49.31
2022-11-23T00:44:33.307Z,48.34
2022-11-23T00:45:33.297Z,47.86
2022-11-23T00:46:33.287Z,47.86
2022-11-23T00:47:33.257Z,46.08
2022-11-23T00:48:33.265Z,45.92
2022-11-23T00:49:33.470Z,49.31
2022-11-23T00:50:33.231Z,45.60
2022-11-23T00:51:33.226Z,46.73
2022-11-23T00:52:33.242Z,53.33
2022-11-23T00:53:33.221Z,48.50
2022-11-23T00:54:33.217Z,48.98
2022-11-23T00:55:33.189Z,43.99
2022-11-23T00:56:33.166Z,43.51
2022-11-23T00:57:33.164Z,43.99
2022-11-23T00:58:33.164Z,45.76
2022-11-23T00:59:33.649Z,49.31
2022-11-23T01:00:33.129Z,45.60
2022-11-23T01:01:33.190Z,44.15
2022-11-23T01:02:33.107Z,46.89
2022-11-23T01:03:33.103Z,47.21
2022-11-23T01:04:33.119Z,47.21
2022-11-23T01:05:33.090Z,44.15
2022-11-23T01:06:33.074Z,44.31
2022-11-23T01:07:33.113Z,45.76
2022-11-23T01:08:33.043Z,44.63
2022-11-23T01:09:33.340Z,48.50
2022-11-23T01:10:33.060Z,44.31
2022-11-23T01:11:33.047Z,46.41
2022-11-23T01:12:33.023Z,44.96
2022-11-23T01:13:32.995Z,43.67
2022-11-23T01:14:33.013Z,43.51
2022-11-23T01:15:33.004Z,43.99
2022-11-23T01:16:32.998Z,44.96
2022-11-23T01:17:32.969Z,44.79
2022-11-23T01:18:32.952Z,46.89
2022-11-23T01:19:33.261Z,44.96
2022-11-23T01:20:32.949Z,47.53
2022-11-23T01:21:32.917Z,43.18
2022-11-23T01:22:32.931Z,44.31
2022-11-23T01:23:32.895Z,45.44
2022-11-23T01:24:32.907Z,49.63
2022-11-23T01:25:32.877Z,48.66
2022-11-23T01:26:32.864Z,47.21
2022-11-23T01:27:32.908Z,48.98
2022-11-23T01:28:32.843Z,43.18
2022-11-23T01:29:33.068Z,43.18
2022-11-23T01:30:32.845Z,44.96
2022-11-23T01:31:32.820Z,44.15
2022-11-23T01:32:32.826Z,44.79
2022-11-23T01:33:32.823Z,47.86
2022-11-23T01:34:32.787Z,43.18
2022-11-23T01:35:32.773Z,43.18
2022-11-23T01:36:32.779Z,44.63
2022-11-23T01:37:32.773Z,54.14
2022-11-23T01:38:32.749Z,45.92
2022-11-23T01:39:33.007Z,45.60
2022-11-23T01:40:32.721Z,45.12
2022-11-23T01:41:32.740Z,45.76
2022-11-23T01:42:32.741Z,49.31
2022-11-23T01:43:32.699Z,48.66
2022-11-23T01:44:32.678Z,46.08
2022-11-23T01:45:32.704Z,45.44
2022-11-23T01:46:32.675Z,47.21
2022-11-23T01:47:32.675Z,45.28
2022-11-23T01:48:32.667Z,44.15
2022-11-23T01:49:32.883Z,44.47
2022-11-23T01:50:32.638Z,44.96
2022-11-23T01:51:32.620Z,45.92
2022-11-23T01:52:32.618Z,47.37
2022-11-23T01:53:32.584Z,48.02
2022-11-23T01:54:32.607Z,47.21
2022-11-23T01:55:32.574Z,44.15
2022-11-23T01:56:32.574Z,44.47
2022-11-23T01:57:32.573Z,46.57
2022-11-23T01:58:32.573Z,46.73
2022-11-23T01:59:32.749Z,46.08
2022-11-23T02:00:32.511Z,44.79
2022-11-23T02:01:32.576Z,45.60
2022-11-23T02:02:32.505Z,45.28
2022-11-23T02:03:32.507Z,45.92
2022-11-23T02:04:32.517Z,48.66
2022-11-23T02:05:32.479Z,46.73
2022-11-23T02:06:32.459Z,46.25
2022-11-23T02:07:32.510Z,48.82
2022-11-23T02:08:32.433Z,48.82
2022-11-23T02:09:32.938Z,46.89
2022-11-23T02:10:32.418Z,47.05
2022-11-23T02:11:32.412Z,48.50
2022-11-23T02:12:32.402Z,45.60
2022-11-23T02:13:32.397Z,46.57
2022-11-23T02:14:32.404Z,47.21
2022-11-23T02:15:32.392Z,47.37
2022-11-23T02:16:32.357Z,48.82
2022-11-23T02:17:32.350Z,44.79
2022-11-23T02:18:32.357Z,43.67
2022-11-23T02:19:32.768Z,43.99
2022-11-23T02:20:32.301Z,44.96
2022-11-23T02:21:32.311Z,47.21
2022-11-23T02:22:32.308Z,45.76
2022-11-23T02:23:32.290Z,45.44
2022-11-23T02:24:32.324Z,48.02
2022-11-23T02:25:32.281Z,50.43
2022-11-23T02:26:32.264Z,45.28
2022-11-23T02:27:32.263Z,47.86
2022-11-23T02:28:32.246Z,48.66
2022-11-23T02:29:32.543Z,47.37
2022-11-23T02:30:32.218Z,47.70
2022-11-23T02:31:32.236Z,48.82
2022-11-23T02:32:32.181Z,46.41
2022-11-23T02:33:32.181Z,45.92
2022-11-23T02:34:32.174Z,45.92
2022-11-23T02:35:32.175Z,44.79
2022-11-23T02:36:32.141Z,46.73
2022-11-23T02:37:32.142Z,48.50
2022-11-23T02:38:32.149Z,46.89
2022-11-23T02:39:32.499Z,44.63
2022-11-23T02:40:32.110Z,44.96
2022-11-23T02:41:32.086Z,43.67
2022-11-23T02:42:32.115Z,44.79
2022-11-23T02:43:32.109Z,47.86
2022-11-23T02:44:32.071Z,47.70
2022-11-23T02:45:32.049Z,46.73
2022-11-23T02:46:32.074Z,46.08
2022-11-23T02:47:32.052Z,45.12
2022-11-23T02:48:32.023Z,47.53
2022-11-23T02:49:32.294Z,48.50
2022-11-23T02:50:31.996Z,45.76
2022-11-23T02:51:32.013Z,45.92
2022-11-23T02:52:31.987Z,49.95
2022-11-23T02:53:31.964Z,46.89
2022-11-23T02:54:31.959Z,46.57
2022-11-23T02:55:31.946Z,46.73
2022-11-23T02:56:31.957Z,48.50
2022-11-23T02:57:31.926Z,48.50
2022-11-23T02:58:31.929Z,46.08
2022-11-23T02:59:32.208Z,47.05
2022-11-23T03:00:31.950Z,44.15
2022-11-23T03:01:31.924Z,42.70
2022-11-23T03:02:31.883Z,42.86
2022-11-23T03:03:31.857Z,45.76
2022-11-23T03:04:31.864Z,44.96
2022-11-23T03:05:31.840Z,45.92
2022-11-23T03:06:31.826Z,45.44
2022-11-23T03:07:31.891Z,45.28
2022-11-23T03:08:31.813Z,48.34
2022-11-23T03:09:32.091Z,46.08
2022-11-23T03:10:31.812Z,45.92
2022-11-23T03:11:31.787Z,45.60
2022-11-23T03:12:31.768Z,48.34
2022-11-23T03:13:31.759Z,49.31
2022-11-23T03:14:31.766Z,47.53
2022-11-23T03:15:31.727Z,48.02
2022-11-23T03:16:31.727Z,46.73
2022-11-23T03:17:31.732Z,46.25
2022-11-23T03:18:31.700Z,45.12
2022-11-23T03:19:32.131Z,45.76
2022-11-23T03:20:31.696Z,47.86
2022-11-23T03:21:31.668Z,46.08
2022-11-23T03:22:31.670Z,45.92
2022-11-23T03:23:31.683Z,47.86
2022-11-23T03:24:31.654Z,45.60
2022-11-23T03:25:31.647Z,46.41
2022-11-23T03:26:31.623Z,52.69
2022-11-23T03:27:31.616Z,50.76
2022-11-23T03:28:31.597Z,50.92
2022-11-23T03:29:31.839Z,50.27
2022-11-23T03:30:31.603Z,52.05
2022-11-23T03:31:31.568Z,49.47
2022-11-23T03:32:31.562Z,48.82
2022-11-23T03:33:31.557Z,48.66
2022-11-23T03:34:31.555Z,46.41
2022-11-23T03:35:31.541Z,47.53
2022-11-23T03:36:31.509Z,47.86
2022-11-23T03:37:31.501Z,44.63
2022-11-23T03:38:31.518Z,48.18
2022-11-23T03:39:31.640Z,48.34
2022-11-23T03:40:31.485Z,50.43
2022-11-23T03:41:31.491Z,48.82
2022-11-23T03:42:31.479Z,49.95
2022-11-23T03:43:31.463Z,49.47
2022-11-23T03:44:31.456Z,48.18
2022-11-23T03:45:31.429Z,47.37
2022-11-23T03:46:31.454Z,47.53
2022-11-23T03:47:31.396Z,48.82
2022-11-23T03:48:31.430Z,48.02
2022-11-23T03:49:31.661Z,51.08
2022-11-23T03:50:31.384Z,48.82
2022-11-23T03:51:31.364Z,50.27
2022-11-23T03:52:31.361Z,50.76
2022-11-23T03:53:31.344Z,52.05
2022-11-23T03:54:31.345Z,48.02
2022-11-23T03:55:31.332Z,50.11
2022-11-23T03:56:31.318Z,51.08
2022-11-23T03:57:31.296Z,46.41
2022-11-23T03:58:31.310Z,45.60
2022-11-23T03:59:31.767Z,52.21
2022-11-23T04:00:31.272Z,49.95
2022-11-23T04:01:31.291Z,48.18
2022-11-23T04:02:31.262Z,48.66
2022-11-23T04:03:31.255Z,48.02
2022-11-23T04:04:31.216Z,52.69
2022-11-23T04:05:31.251Z,49.31
2022-11-23T04:06:31.211Z,50.43
2022-11-23T04:07:31.240Z,48.82
2022-11-23T04:08:31.188Z,48.98
2022-11-23T04:09:31.417Z,50.27
2022-11-23T04:10:31.166Z,50.27
2022-11-23T04:11:31.177Z,51.88
2022-11-23T04:12:31.153Z,53.66
2022-11-23T04:13:31.137Z,48.66
2022-11-23T04:14:31.147Z,51.40
2022-11-23T04:15:31.105Z,51.72
2022-11-23T04:16:31.104Z,49.15
2022-11-23T04:17:31.102Z,53.82
2022-11-23T04:18:31.080Z,52.69
2022-11-23T04:19:31.384Z,48.50
2022-11-23T04:20:31.065Z,52.85
2022-11-23T04:21:31.066Z,53.50
2022-11-23T04:22:31.033Z,53.98
2022-11-23T04:23:31.035Z,50.92
2022-11-23T04:24:31.016Z,53.50
2022-11-23T04:25:30.986Z,52.85
2022-11-23T04:26:31.003Z,51.72
2022-11-23T04:27:30.984Z,51.24
2022-11-23T04:28:30.955Z,52.85
2022-11-23T04:29:32.396Z,53.66
2022-11-23T04:30:30.956Z,54.95
2022-11-23T04:31:30.939Z,50.43
2022-11-23T04:32:30.920Z,52.85
2022-11-23T04:33:30.949Z,53.98
2022-11-23T04:34:30.921Z,53.98
2022-11-23T04:35:30.893Z,53.82
2022-11-23T04:36:30.922Z,53.98
2022-11-23T04:37:30.874Z,50.43
2022-11-23T04:38:46.075Z,54.46
2022-11-23T04:39:31.114Z,53.98
2022-11-23T04:40:30.862Z,53.82
2022-11-23T04:41:30.846Z,54.30
2022-11-23T04:42:30.834Z,56.07
2022-11-23T04:43:30.807Z,56.56
2022-11-23T04:44:30.803Z,55.43
2022-11-23T04:45:30.800Z,56.88
2022-11-23T04:46:30.783Z,55.27
2022-11-23T04:47:30.766Z,53.01
2022-11-23T04:48:30.755Z,53.17
2022-11-23T04:49:31.029Z,54.14
2022-11-23T04:50:30.742Z,56.24
2022-11-23T04:51:30.727Z,55.43
2022-11-23T04:52:30.730Z,54.14
2022-11-23T04:53:30.722Z,56.56
2022-11-23T04:54:30.701Z,54.79
2022-11-23T04:55:30.690Z,54.14
2022-11-23T04:56:30.694Z,56.07
2022-11-23T04:57:30.663Z,55.43
2022-11-23T04:58:34.500Z,56.56
2022-11-23T04:59:32.110Z,57.04
2022-11-23T05:00:30.656Z,54.30
2022-11-23T05:01:30.662Z,53.98
2022-11-23T05:02:30.629Z,56.56
2022-11-23T05:03:30.600Z,53.82
2022-11-23T05:04:30.588Z,53.82
2022-11-23T05:05:30.602Z,55.91
2022-11-23T05:06:30.566Z,57.20
2022-11-23T05:07:30.598Z,56.88
2022-11-23T05:08:30.604Z,56.56
2022-11-23T05:09:30.979Z,56.24
2022-11-23T05:10:30.521Z,56.07
2022-11-23T05:11:30.551Z,54.79
2022-11-23T05:12:30.505Z,56.24
2022-11-23T05:13:30.492Z,56.24
2022-11-23T05:14:30.484Z,55.43
2022-11-23T05:15:30.504Z,56.24
2022-11-23T05:16:30.461Z,55.75
2022-11-23T05:17:30.450Z,57.36
2022-11-23T05:18:30.456Z,54.46
2022-11-23T05:19:30.867Z,56.72
2022-11-23T05:20:30.433Z,57.85
2022-11-23T05:21:30.421Z,57.52
2022-11-23T05:22:30.396Z,56.07
2022-11-23T05:23:30.413Z,56.24
2022-11-23T05:24:30.395Z,55.27
2022-11-23T05:25:30.388Z,55.27
2022-11-23T05:26:30.366Z,59.14
2022-11-23T05:27:30.362Z,58.17
2022-11-23T05:28:40.023Z,58.33
2022-11-23T05:29:32.756Z,56.56
2022-11-23T05:30:30.329Z,58.65
2022-11-23T05:31:30.336Z,56.56
2022-11-23T05:32:30.301Z,55.59
2022-11-23T05:33:30.287Z,54.95
2022-11-23T05:34:30.258Z,58.17
2022-11-23T05:35:31.308Z,57.52
2022-11-23T05:36:30.260Z,55.59
2022-11-23T05:37:30.242Z,57.04
2022-11-23T05:38:30.259Z,57.85
2022-11-23T05:39:30.846Z,57.20
2022-11-23T05:40:30.214Z,56.24
2022-11-23T05:41:30.208Z,58.01
2022-11-23T05:42:30.204Z,59.46
2022-11-23T05:43:30.182Z,60.42
2022-11-23T05:44:30.179Z,57.85
2022-11-23T05:45:30.167Z,55.59
2022-11-23T05:46:30.170Z,57.85
2022-11-23T05:47:30.144Z,59.14
2022-11-23T05:48:30.132Z,58.97
2022-11-23T05:49:30.527Z,58.33
2022-11-23T05:50:30.113Z,58.97
2022-11-23T05:51:30.132Z,58.01
2022-11-23T05:52:30.092Z,57.36
2022-11-23T05:53:30.089Z,57.52
2022-11-23T05:54:30.087Z,57.69
2022-11-23T05:55:30.053Z,58.17
2022-11-23T05:56:30.030Z,56.88
2022-11-23T05:57:30.029Z,57.20
2022-11-23T05:58:30.029Z,58.97
2022-11-23T05:59:30.502Z,57.85
2022-11-23T06:00:30.006Z,58.97
2022-11-23T06:01:30.001Z,58.97
2022-11-23T06:02:29.992Z,56.88
2022-11-23T06:03:30.132Z,55.43
2022-11-23T06:04:29.992Z,56.24
2022-11-23T06:05:29.950Z,56.88
2022-11-23T06:06:29.921Z,54.30
2022-11-23T06:07:30.025Z,56.72
2022-11-23T06:08:29.916Z,56.72
2022-11-23T06:09:30.353Z,56.88
2022-11-23T06:10:29.909Z,57.04
2022-11-23T06:11:29.923Z,56.40
2022-11-23T06:12:29.869Z,56.07
2022-11-23T06:13:29.857Z,56.24
2022-11-23T06:14:29.874Z,56.07
2022-11-23T06:15:29.839Z,57.69
2022-11-23T06:16:29.817Z,56.56
2022-11-23T06:17:29.813Z,56.07
2022-11-23T06:18:29.954Z,58.01
2022-11-23T06:19:30.348Z,57.85
2022-11-23T06:20:29.787Z,58.01
2022-11-23T06:21:29.786Z,57.20
2022-11-23T06:22:29.778Z,58.01
2022-11-23T06:23:29.754Z,57.52
2022-11-23T06:24:29.771Z,56.40
2022-11-23T06:25:29.777Z,55.91
2022-11-23T06:26:29.749Z,55.91
2022-11-23T06:27:29.727Z,55.43
2022-11-23T06:28:29.724Z,57.20
2022-11-23T06:29:30.100Z,58.81
2022-11-23T06:30:29.683Z,58.65
2022-11-23T06:31:29.687Z,57.20
2022-11-23T06:32:29.656Z,58.01
2022-11-23T06:33:29.653Z,56.88
2022-11-23T06:34:29.682Z,57.36
2022-11-23T06:35:29.622Z,57.69
2022-11-23T06:36:29.610Z,57.69
2022-11-23T06:37:29.604Z,59.62
2022-11-23T06:38:29.627Z,56.72
2022-11-23T06:39:30.064Z,58.01
2022-11-23T06:40:29.599Z,58.97
2022-11-23T06:41:32.558Z,59.14
2022-11-23T06:42:38.874Z,57.69
2022-11-23T06:43:31.551Z,57.52
2022-11-23T06:44:29.556Z,59.46
2022-11-23T06:45:29.529Z,58.65
2022-11-23T06:46:29.521Z,59.78
2022-11-23T06:47:29.529Z,59.46
2022-11-23T06:48:29.499Z,55.75
2022-11-23T06:49:29.708Z,57.85
2022-11-23T06:50:29.501Z,59.78
2022-11-23T06:51:29.487Z,59.30
2022-11-23T06:52:29.472Z,58.65
2022-11-23T06:53:29.434Z,57.52
2022-11-23T06:54:29.428Z,59.14
2022-11-23T06:55:29.477Z,57.20
2022-11-23T06:56:29.411Z,58.01
2022-11-23T06:57:29.507Z,56.07
2022-11-23T06:58:29.386Z,58.17
2022-11-23T06:59:29.608Z,58.97
2022-11-23T07:00:29.440Z,56.56
2022-11-23T07:01:29.383Z,55.75
2022-11-23T07:02:29.379Z,57.69
2022-11-23T07:03:29.390Z,57.20
2022-11-23T07:04:29.332Z,58.97
2022-11-23T07:05:29.341Z,58.65
2022-11-23T07:06:29.340Z,58.97
2022-11-23T07:07:29.358Z,57.36
2022-11-23T07:08:29.291Z,58.33
2022-11-23T07:09:29.471Z,57.69
2022-11-23T07:10:29.407Z,58.81
2022-11-23T07:11:29.285Z,57.36
2022-11-23T07:12:29.288Z,57.85
2022-11-23T07:13:29.238Z,55.75
2022-11-23T07:14:29.240Z,57.69
2022-11-23T07:15:29.223Z,56.56
2022-11-23T07:16:29.212Z,56.88
2022-11-23T07:17:29.226Z,55.91
2022-11-23T07:18:29.202Z,54.95
2022-11-23T07:19:29.365Z,57.20
2022-11-23T07:20:29.179Z,56.56
2022-11-23T07:21:29.206Z,57.36
2022-11-23T07:22:29.141Z,59.14
2022-11-23T07:23:29.138Z,55.91
2022-11-23T07:24:32.881Z,55.91
2022-11-23T07:25:30.129Z,57.69
2022-11-23T07:26:29.099Z,56.72
2022-11-23T07:27:29.091Z,56.72
2022-11-23T07:28:29.119Z,57.69
2022-11-23T07:29:29.229Z,57.69
2022-11-23T07:30:29.667Z,57.69
2022-11-23T07:31:30.060Z,56.88
2022-11-23T07:32:29.037Z,55.59
2022-11-23T07:33:29.026Z,56.24
2022-11-23T07:34:29.046Z,58.81
2022-11-23T07:35:29.006Z,57.52
2022-11-23T07:37:02.354Z,56.72
2022-11-23T07:37:28.990Z,56.72
2022-11-23T07:38:29.031Z,57.69
2022-11-23T07:39:55.222Z,58.17
2022-11-23T07:40:30.981Z,58.01
2022-11-23T07:41:28.955Z,55.91
2022-11-23T07:42:33.939Z,56.24
2022-11-23T07:43:30.970Z,56.56
2022-11-23T07:44:28.968Z,56.40
2022-11-23T07:45:28.896Z,57.69
2022-11-23T07:46:28.896Z,56.72
2022-11-23T07:47:28.883Z,56.07
2022-11-23T07:48:33.211Z,58.65
2022-11-23T07:49:31.256Z,58.17
2022-11-23T07:50:28.884Z,56.88
2022-11-23T07:51:28.862Z,57.52
2022-11-23T07:52:28.826Z,56.88
2022-11-23T07:53:28.833Z,57.85
2022-11-23T07:54:28.878Z,56.88
2022-11-23T07:55:28.812Z,56.72
2022-11-23T07:56:28.792Z,57.85
2022-11-23T07:57:28.777Z,55.11
2022-11-23T07:58:28.807Z,55.59
2022-11-23T07:59:28.774Z,57.69
2022-11-23T08:00:28.783Z,56.40
2022-11-23T08:01:28.773Z,57.36
2022-11-23T08:02:28.795Z,56.72
2022-11-23T08:03:29.499Z,55.43
2022-11-23T08:04:30.017Z,58.17
2022-11-23T08:05:28.713Z,56.56
2022-11-23T08:06:28.676Z,56.07
2022-11-23T08:07:28.726Z,54.95
2022-11-23T08:08:28.695Z,55.91
2022-11-23T08:09:28.658Z,53.82
2022-11-23T08:10:28.650Z,55.75
2022-11-23T08:11:28.656Z,57.04
2022-11-23T08:12:28.659Z,59.62
2022-11-23T08:13:28.639Z,57.04
2022-11-23T08:14:28.631Z,57.69
2022-11-23T08:15:28.610Z,56.07
2022-11-23T08:16:28.591Z,57.52
2022-11-23T08:17:28.556Z,55.75
2022-11-23T08:18:28.586Z,56.72
2022-11-23T08:19:28.558Z,55.91
2022-11-23T08:20:28.514Z,57.52
2022-11-23T08:21:28.559Z,56.07
2022-11-23T08:22:29.496Z,55.27
2022-11-23T08:23:28.495Z,56.72
2022-11-23T08:24:28.507Z,56.40
2022-11-23T08:25:28.534Z,57.69
2022-11-23T08:26:28.480Z,59.62
2022-11-23T08:27:28.476Z,57.20
2022-11-23T08:28:28.505Z,56.40
2022-11-23T08:29:28.424Z,56.56
2022-11-23T08:30:28.440Z,57.04
2022-11-23T08:31:28.405Z,57.20
2022-11-23T08:32:28.387Z,58.17
2022-11-23T08:33:28.401Z,58.81
2022-11-23T08:34:28.414Z,57.69
2022-11-23T08:35:28.390Z,55.43
2022-11-23T08:36:28.354Z,56.56
2022-11-23T08:37:28.377Z,55.27
2022-11-23T08:38:28.375Z,55.43
2022-11-23T08:39:28.332Z,55.27
2022-11-23T08:40:28.314Z,55.11
2022-11-23T08:41:28.306Z,55.11
2022-11-23T08:42:28.315Z,55.43
2022-11-23T08:43:28.287Z,56.88
2022-11-23T08:44:28.290Z,53.17
2022-11-23T08:45:28.279Z,51.56
2022-11-23T08:46:28.288Z,52.69
2022-11-23T08:47:28.243Z,54.46
2022-11-23T08:48:28.260Z,55.43
2022-11-23T08:49:28.214Z,56.72
2022-11-23T08:50:28.198Z,53.17
2022-11-23T08:51:28.208Z,57.36
2022-11-23T08:52:28.207Z,53.82
2022-11-23T08:53:28.163Z,55.11
2022-11-23T08:54:28.208Z,56.88
2022-11-23T08:55:28.163Z,56.72
2022-11-23T08:56:28.141Z,56.07
2022-11-23T08:57:28.170Z,53.33
2022-11-23T08:58:28.143Z,53.50
2022-11-23T08:59:28.159Z,52.21
2022-11-23T09:00:28.092Z,52.21
2022-11-23T09:01:28.131Z,54.79
2022-11-23T09:02:28.051Z,56.07
2022-11-23T09:03:28.061Z,57.85
2022-11-23T09:04:28.062Z,53.17
2022-11-23T09:05:28.080Z,51.88
2022-11-23T09:06:28.025Z,57.69
2022-11-23T09:07:28.075Z,56.72
2022-11-23T09:08:28.033Z,55.59
2022-11-23T09:09:28.017Z,53.66
2022-11-23T09:10:27.982Z,56.24
2022-11-23T09:11:27.996Z,59.46
2022-11-23T09:12:27.976Z,57.20
2022-11-23T09:13:27.985Z,54.30
2022-11-23T09:14:27.942Z,54.95
2022-11-23T09:15:27.936Z,57.04
2022-11-23T09:16:32.506Z,56.72
2022-11-23T09:17:29.902Z,54.62
2022-11-23T09:18:28.024Z,55.91
2022-11-23T09:19:27.915Z,52.53
2022-11-23T09:20:27.865Z,55.75
2022-11-23T09:21:28.875Z,57.20
2022-11-23T09:22:27.874Z,57.20
2022-11-23T09:23:27.851Z,56.40
2022-11-23T09:24:27.906Z,54.14
2022-11-23T09:25:27.851Z,54.95
2022-11-23T09:26:27.842Z,57.20
2022-11-23T09:27:27.871Z,55.11
2022-11-23T09:28:27.818Z,55.43
2022-11-23T09:29:27.792Z,53.66
2022-11-23T09:30:27.807Z,55.43
2022-11-23T09:31:27.767Z,56.07
2022-11-23T09:32:27.768Z,53.98
2022-11-23T09:33:27.729Z,53.66
2022-11-23T09:34:27.756Z,56.07
2022-11-23T09:35:27.751Z,54.30
2022-11-23T09:36:27.700Z,54.95
2022-11-23T09:37:27.719Z,52.53
2022-11-23T09:38:44.769Z,54.95
2022-11-23T09:39:29.687Z,55.91
2022-11-23T09:40:27.637Z,55.59
2022-11-23T09:41:27.677Z,56.24
2022-11-23T09:42:27.661Z,58.49
2022-11-23T09:43:27.622Z,56.07
2022-11-23T09:44:27.591Z,55.75
2022-11-23T09:45:27.649Z,56.56
2022-11-23T09:46:27.608Z,54.14
2022-11-23T09:47:27.605Z,55.27
2022-11-23T09:48:27.658Z,56.07
2022-11-23T09:49:27.632Z,56.88
2022-11-23T09:50:27.547Z,58.01
2022-11-23T09:51:27.541Z,58.81
2022-11-23T09:52:27.539Z,58.17
2022-11-23T09:53:27.536Z,58.81
2022-11-23T09:54:27.497Z,58.49
2022-11-23T09:55:27.510Z,56.56
2022-11-23T09:56:27.493Z,55.59
2022-11-23T09:57:27.441Z,56.40
2022-11-23T09:58:27.472Z,57.20
2022-11-23T09:59:27.450Z,56.88
2022-11-23T10:00:27.438Z,59.30
2022-11-23T10:01:27.477Z,57.85
2022-11-23T10:02:27.440Z,55.43
2022-11-23T10:03:27.400Z,55.27
2022-11-23T10:04:27.373Z,59.14
2022-11-23T10:05:27.396Z,56.07
2022-11-23T10:06:27.355Z,57.52
2022-11-23T10:07:27.429Z,55.11
2022-11-23T10:08:27.366Z,56.07
2022-11-23T10:09:27.329Z,58.01
2022-11-23T10:10:27.308Z,55.27
2022-11-23T10:11:27.310Z,59.14
2022-11-23T10:12:27.331Z,55.91
2022-11-23T10:13:27.345Z,53.82
2022-11-23T10:14:27.283Z,57.20
2022-11-23T10:15:27.249Z,55.91
2022-11-23T10:16:27.261Z,55.43
2022-11-23T10:17:27.223Z,56.40
2022-11-23T10:18:27.189Z,55.11
2022-11-23T10:19:27.214Z,56.88
2022-11-23T10:20:27.257Z,56.56
2022-11-23T10:21:27.178Z,56.72
2022-11-23T10:22:27.215Z,56.07
2022-11-23T10:23:27.188Z,53.50
2022-11-23T10:24:27.139Z,54.14
2022-11-23T10:25:27.187Z,55.11
2022-11-23T10:26:27.130Z,56.07
2022-11-23T10:27:27.115Z,57.36
2022-11-23T10:28:27.097Z,55.27
2022-11-23T10:29:27.113Z,54.95
2022-11-23T10:30:27.053Z,56.24
2022-11-23T10:31:27.062Z,56.07
2022-11-23T10:32:27.066Z,57.20
2022-11-23T10:33:27.081Z,54.79
2022-11-23T10:34:27.019Z,56.88
2022-11-23T10:35:27.036Z,56.40
2022-11-23T10:36:27.027Z,56.56
2022-11-23T10:37:27.001Z,57.20
2022-11-23T10:38:27.013Z,58.01
2022-11-23T10:39:27.010Z,57.20
2022-11-23T10:40:26.934Z,56.88
2022-11-23T10:41:27.978Z,56.40
2022-11-23T10:42:26.960Z,56.88
2022-11-23T10:43:26.965Z,56.72
2022-11-23T10:44:26.933Z,57.20
2022-11-23T10:45:26.945Z,54.62
2022-11-23T10:46:26.885Z,56.72
2022-11-23T10:47:26.883Z,58.81
2022-11-23T10:48:26.894Z,57.36
2022-11-23T10:49:26.899Z,56.88
2022-11-23T10:50:26.827Z,59.78
2022-11-23T10:51:26.865Z,58.49
2022-11-23T10:52:26.837Z,57.20
2022-11-23T10:53:26.810Z,57.85
2022-11-23T10:54:26.813Z,57.04
2022-11-23T10:55:27.116Z,57.69
2022-11-23T10:56:26.836Z,56.88
2022-11-23T10:57:26.764Z,57.69
2022-11-23T10:58:26.774Z,56.24
2022-11-23T10:59:26.764Z,56.40
2022-11-23T11:00:30.492Z,55.11
2022-11-23T11:01:27.783Z,58.01
2022-11-23T11:02:26.728Z,57.52
2022-11-23T11:03:26.701Z,56.24
2022-11-23T11:04:29.781Z,56.72
2022-11-23T11:05:46.323Z,57.36
2022-11-23T11:06:28.656Z,55.59
2022-11-23T11:07:26.767Z,57.36
2022-11-23T11:08:26.694Z,54.95
2022-11-23T11:09:26.670Z,56.24
2022-11-23T11:10:26.657Z,57.20
2022-11-23T11:11:26.656Z,54.62
2022-11-23T11:12:26.591Z,55.27
2022-11-23T11:13:26.620Z,55.11
2022-11-23T11:14:26.607Z,58.33
2022-11-23T11:15:26.566Z,58.17
2022-11-23T11:16:26.558Z,59.30
2022-11-23T11:17:26.562Z,58.81
2022-11-23T11:18:26.574Z,57.69
2022-11-23T11:19:26.580Z,56.24
2022-11-23T11:20:26.496Z,56.56
2022-11-23T11:21:26.520Z,56.40
2022-11-23T11:22:26.515Z,55.91
2022-11-23T11:23:26.505Z,56.24
2022-11-23T11:24:26.448Z,56.07
2022-11-23T11:25:26.503Z,56.56
2022-11-23T11:26:26.435Z,58.33
2022-11-23T11:27:26.437Z,57.69
2022-11-23T11:28:26.476Z,56.72
2022-11-23T11:29:26.444Z,54.46
2022-11-23T11:30:26.406Z,57.52
2022-11-23T11:31:26.395Z,55.91
2022-11-23T11:32:26.396Z,56.56
2022-11-23T11:33:26.374Z,55.43
2022-11-23T11:34:26.368Z,56.72
2022-11-23T11:35:26.351Z,56.07
2022-11-23T11:36:26.317Z,54.79
2022-11-23T11:37:26.322Z,54.46
2022-11-23T11:38:26.340Z,56.56
2022-11-23T11:39:26.365Z,56.07
2022-11-23T11:40:26.291Z,57.20
2022-11-23T11:41:26.307Z,58.33
2022-11-23T11:42:26.267Z,54.79
2022-11-23T11:43:33.563Z,57.20
2022-11-23T11:44:28.280Z,56.07
2022-11-23T11:45:26.237Z,58.33
2022-11-23T11:46:30.119Z,58.65
2022-11-23T11:47:27.214Z,55.11
2022-11-23T11:48:26.247Z,55.27
2022-11-23T11:49:26.204Z,56.07
2022-11-23T11:50:31.415Z,58.17
2022-11-23T11:51:28.179Z,54.30
2022-11-23T11:52:26.265Z,56.88
2022-11-23T11:53:26.162Z,55.27
2022-11-23T11:54:26.138Z,56.56
2022-11-23T11:55:26.145Z,57.20
2022-11-23T11:56:26.149Z,55.91
2022-11-23T11:57:26.080Z,54.95
2022-11-23T11:58:26.135Z,54.62
2022-11-23T11:59:26.098Z,57.69
2022-11-23T12:00:26.051Z,55.59
2022-11-23T12:01:26.056Z,58.97
2022-11-23T12:02:26.114Z,57.36
2022-11-23T12:03:26.063Z,56.07
2022-11-23T12:04:26.004Z,56.40
2022-11-23T12:05:26.058Z,55.91
2022-11-23T12:06:26.931Z,56.72
2022-11-23T12:07:27.054Z,55.43
2022-11-23T12:08:25.993Z,54.46
2022-11-23T12:09:25.951Z,55.11
2022-11-23T12:10:25.929Z,56.56
2022-11-23T12:11:25.968Z,57.52
2022-11-23T12:12:29.802Z,58.49
2022-11-23T12:13:26.924Z,56.72
2022-11-23T12:14:25.927Z,56.88
2022-11-23T12:15:48.365Z,57.85
2022-11-23T12:16:27.896Z,56.56
2022-11-23T12:17:32.809Z,57.36
2022-11-23T12:18:27.961Z,56.40
2022-11-23T12:19:25.850Z,54.46
2022-11-23T12:20:25.814Z,55.59
2022-11-23T12:21:25.876Z,55.27
2022-11-23T12:22:25.835Z,56.07
2022-11-23T12:23:25.826Z,54.95
2022-11-23T12:24:25.774Z,56.24
2022-11-23T12:25:25.804Z,59.30
2022-11-23T12:26:25.803Z,56.56
2022-11-23T12:27:25.758Z,54.95
2022-11-23T12:28:25.744Z,56.07
2022-11-23T12:29:25.771Z,56.24
2022-11-23T12:30:25.732Z,56.40
2022-11-23T12:31:25.709Z,57.04
2022-11-23T12:32:25.751Z,56.72
2022-11-23T12:33:26.704Z,57.85
2022-11-23T12:34:25.672Z,56.88
2022-11-23T12:35:25.689Z,56.07
2022-11-23T12:36:25.777Z,57.52
2022-11-23T12:37:25.676Z,57.20
2022-11-23T12:38:25.673Z,55.27
2022-11-23T12:39:25.657Z,57.85
2022-11-23T12:40:25.598Z,56.24
2022-11-23T12:41:25.606Z,58.65
2022-11-23T12:42:25.614Z,58.33
2022-11-23T12:43:25.576Z,59.78
2022-11-23T12:44:25.569Z,57.85
2022-11-23T12:45:25.597Z,57.36
2022-11-23T12:46:25.556Z,58.49
2022-11-23T12:47:25.536Z,56.56
2022-11-23T12:48:25.566Z,56.40
2022-11-23T12:49:25.525Z,56.88
2022-11-23T12:50:25.499Z,56.56
2022-11-23T12:51:25.467Z,58.33
2022-11-23T12:52:25.513Z,54.46